sensor_id;sensor_type;location;lat;lon;timestamp;pressure;altitude;pressure_sealevel;temperature;humidity
39309;BME280;26019;47.510;19.122;2023-02-20T00:01:22;100878.53;;;4.03;64.93
39309;BME280;26019;47.510;19.122;2023-02-20T00:11:24;100879.78;;;3.87;65.19
39309;BME280;26019;47.510;19.122;2023-02-20T00:21:26;100886.91;;;3.98;60.70
39309;BME280;26019;47.510;19.122;2023-02-20T00:31:29;100907.47;;;4.01;59.78
39309;BME280;26019;47.510;19.122;2023-02-20T00:41:31;100903.44;;;3.80;60.57
39309;BME280;26019;47.510;19.122;2023-02-20T00:51:33;100930.78;;;3.83;61.07
39309;BME280;26019;47.510;19.122;2023-02-20T01:01:37;100915.75;;;3.66;60.18
39309;BME280;26019;47.510;19.122;2023-02-20T01:11:45;100927.78;;;3.69;62.32
39309;BME280;26019;47.510;19.122;2023-02-20T01:21:47;100924.78;;;3.55;61.73
39309;BME280;26019;47.510;19.122;2023-02-20T01:31:52;100947.69;;;3.52;62.72
39309;BME280;26019;47.510;19.122;2023-02-20T01:41:57;100964.41;;;3.42;62.63
39309;BME280;26019;47.510;19.122;2023-02-20T01:52:06;100974.66;;;3.18;73.16
39309;BME280;26019;47.510;19.122;2023-02-20T02:02:15;100984.94;;;2.95;77.84
39309;BME280;26019;47.510;19.122;2023-02-20T02:12:18;100955.25;;;2.74;83.13
39309;BME280;26019;47.510;19.122;2023-02-20T02:33:36;100983.13;;;2.22;92.72
39309;BME280;26019;47.510;19.122;2023-02-20T03:04:18;101027.41;;;2.24;100.00
39309;BME280;26019;47.510;19.122;2023-02-20T03:14:33;101012.66;;;2.17;100.00
39309;BME280;26019;47.510;19.122;2023-02-20T03:25:07;101005.44;;;2.07;100.00
39309;BME280;26019;47.510;19.122;2023-02-20T03:35:12;101005.19;;;2.01;100.00
39309;BME280;26019;47.510;19.122;2023-02-20T03:45:36;101028.34;;;2.05;100.00
39309;BME280;26019;47.510;19.122;2023-02-20T03:55:39;101054.28;;;2.16;100.00
39309;BME280;26019;47.510;19.122;2023-02-20T04:05:44;101044.75;;;2.33;100.00
39309;BME280;26019;47.510;19.122;2023-02-20T04:15:49;101030.25;;;2.32;100.00
39309;BME280;26019;47.510;19.122;2023-02-20T04:26:03;101033.06;;;2.17;100.00
39309;BME280;26019;47.510;19.122;2023-02-20T04:36:07;101038.69;;;2.08;100.00
39309;BME280;26019;47.510;19.122;2023-02-20T04:46:09;101024.47;;;2.15;100.00
39309;BME280;26019;47.510;19.122;2023-02-20T04:56:12;101013.66;;;2.21;100.00
39309;BME280;26019;47.510;19.122;2023-02-20T05:06:16;101019.75;;;2.24;100.00
39309;BME280;26019;47.510;19.122;2023-02-20T05:16:18;101033.56;;;2.30;100.00
39309;BME280;26019;47.510;19.122;2023-02-20T05:26:22;101039.88;;;2.39;100.00
39309;BME280;26019;47.510;19.122;2023-02-20T05:36:24;101050.34;;;2.46;100.00
39309;BME280;26019;47.510;19.122;2023-02-20T05:46:27;101069.88;;;2.45;100.00
39309;BME280;26019;47.510;19.122;2023-02-20T05:56:29;101067.72;;;2.56;100.00
39309;BME280;26019;47.510;19.122;2023-02-20T06:06:39;101082.06;;;2.52;100.00
39309;BME280;26019;47.510;19.122;2023-02-20T06:16:42;101079.50;;;2.52;100.00
39309;BME280;26019;47.510;19.122;2023-02-20T06:26:44;101087.53;;;2.62;100.00
39309;BME280;26019;47.510;19.122;2023-02-20T06:36:46;101099.19;;;2.78;100.00
39309;BME280;26019;47.510;19.122;2023-02-20T06:46:49;101076.38;;;2.82;100.00
39309;BME280;26019;47.510;19.122;2023-02-20T06:56:51;101101.88;;;3.04;100.00
39309;BME280;26019;47.510;19.122;2023-02-20T07:06:55;101102.84;;;3.30;99.64
39309;BME280;26019;47.510;19.122;2023-02-20T07:16:57;101069.94;;;3.39;98.69
39309;BME280;26019;47.510;19.122;2023-02-20T07:26:58;101076.03;;;3.43;100.00
39309;BME280;26019;47.510;19.122;2023-02-20T07:37:02;101086.81;;;4.10;94.31
39309;BME280;26019;47.510;19.122;2023-02-20T07:47:04;101093.38;;;4.84;89.10
39309;BME280;26019;47.510;19.122;2023-02-20T07:57:14;101085.16;;;4.95;88.92
39309;BME280;26019;47.510;19.122;2023-02-20T08:07:21;101107.59;;;4.47;91.65
39309;BME280;26019;47.510;19.122;2023-02-20T08:17:24;101088.97;;;5.72;91.19
39309;BME280;26019;47.510;19.122;2023-02-20T08:27:42;101089.47;;;6.24;85.23
39309;BME280;26019;47.510;19.122;2023-02-20T08:37:44;101079.97;;;6.58;84.76
39309;BME280;26019;47.510;19.122;2023-02-20T08:47:49;101056.53;;;7.25;80.60
39309;BME280;26019;47.510;19.122;2023-02-20T08:57:51;101052.22;;;7.72;76.26
39309;BME280;26019;47.510;19.122;2023-02-20T09:07:53;101058.00;;;8.09;71.34
39309;BME280;26019;47.510;19.122;2023-02-20T09:17:55;101046.41;;;7.35;83.75
39309;BME280;26019;47.510;19.122;2023-02-20T09:27:58;101034.13;;;7.18;90.05
39309;BME280;26019;47.510;19.122;2023-02-20T09:38:00;101014.00;;;6.97;96.72
39309;BME280;26019;47.510;19.122;2023-02-20T09:48:22;101025.69;;;6.82;100.00
39309;BME280;26019;47.510;19.122;2023-02-20T09:58:52;101021.13;;;7.12;100.00
39309;BME280;26019;47.510;19.122;2023-02-20T10:09:03;101000.13;;;7.35;100.00
39309;BME280;26019;47.510;19.122;2023-02-20T10:19:20;100977.31;;;7.06;100.00
39309;BME280;26019;47.510;19.122;2023-02-20T10:29:38;100970.28;;;7.43;100.00
39309;BME280;26019;47.510;19.122;2023-02-20T10:40:10;100959.09;;;8.55;98.40
39309;BME280;26019;47.510;19.122;2023-02-20T10:50:35;100924.34;;;10.00;81.08
39309;BME280;26019;47.510;19.122;2023-02-20T11:00:54;100908.44;;;11.50;71.62
39309;BME280;26019;47.510;19.122;2023-02-20T11:11:00;100891.06;;;10.66;71.30
39309;BME280;26019;47.510;19.122;2023-02-20T11:21:07;100859.88;;;12.39;61.94
39309;BME280;26019;47.510;19.122;2023-02-20T11:31:09;100864.41;;;10.95;67.08
39309;BME280;26019;47.510;19.122;2023-02-20T11:41:25;100842.75;;;11.90;65.89
39309;BME280;26019;47.510;19.122;2023-02-20T11:51:46;100814.81;;;16.36;48.65
39309;BME280;26019;47.510;19.122;2023-02-20T12:01:50;100783.06;;;14.13;52.43
39309;BME280;26019;47.510;19.122;2023-02-20T12:12:03;100773.50;;;13.43;53.17
39309;BME280;26019;47.510;19.122;2023-02-20T12:22:34;100748.25;;;19.01;39.85
39309;BME280;26019;47.510;19.122;2023-02-20T12:53:27;100708.59;;;13.45;52.31
39309;BME280;26019;47.510;19.122;2023-02-20T13:34:34;100670.88;;;12.12;61.43
39309;BME280;26019;47.510;19.122;2023-02-20T13:44:42;100655.06;;;12.46;57.42
39309;BME280;26019;47.510;19.122;2023-02-20T13:54:46;100654.22;;;12.44;56.29
39309;BME280;26019;47.510;19.122;2023-02-20T14:05:01;100628.69;;;11.88;56.53
39309;BME280;26019;47.510;19.122;2023-02-20T14:15:05;100636.59;;;11.63;56.62
39309;BME280;26019;47.510;19.122;2023-02-20T14:45:26;100605.94;;;12.35;53.55
39309;BME280;26019;47.510;19.122;2023-02-20T14:55:41;100603.50;;;12.15;54.14
39309;BME280;26019;47.510;19.122;2023-02-20T15:05:44;100584.03;;;11.53;56.36
39309;BME280;26019;47.510;19.122;2023-02-20T15:15:50;100593.53;;;11.53;55.94
39309;BME280;26019;47.510;19.122;2023-02-20T15:25:52;100571.97;;;11.49;64.36
39309;BME280;26019;47.510;19.122;2023-02-20T15:35:56;100545.44;;;11.05;69.10
39309;BME280;26019;47.510;19.122;2023-02-20T15:45:59;100535.25;;;10.68;74.80
39309;BME280;26019;47.510;19.122;2023-02-20T15:56:02;100521.50;;;10.45;79.64
39309;BME280;26019;47.510;19.122;2023-02-20T16:06:16;100500.03;;;10.11;86.48
39309;BME280;26019;47.510;19.122;2023-02-20T16:16:28;100488.88;;;9.93;91.12
39309;BME280;26019;47.510;19.122;2023-02-20T16:26:33;100474.25;;;9.69;94.69
39309;BME280;26019;47.510;19.122;2023-02-20T16:36:39;100468.19;;;9.57;96.19
39309;BME280;26019;47.510;19.122;2023-02-20T16:46:48;100463.91;;;9.35;98.01
39309;BME280;26019;47.510;19.122;2023-02-20T16:56:52;100454.44;;;9.34;97.12
39309;BME280;26019;47.510;19.122;2023-02-20T17:06:55;100441.53;;;9.26;97.40
39309;BME280;26019;47.510;19.122;2023-02-20T17:16:58;100456.16;;;9.27;96.49
39309;BME280;26019;47.510;19.122;2023-02-20T17:27:01;100431.19;;;9.06;98.28
39309;BME280;26019;47.510;19.122;2023-02-20T17:37:04;100426.84;;;8.88;99.67
39309;BME280;26019;47.510;19.122;2023-02-20T17:47:11;100446.56;;;8.84;100.00
39309;BME280;26019;47.510;19.122;2023-02-20T17:57:16;100435.34;;;8.68;100.00
39309;BME280;26019;47.510;19.122;2023-02-20T18:07:23;100429.28;;;8.55;100.00
39309;BME280;26019;47.510;19.122;2023-02-20T18:17:28;100416.44;;;8.57;100.00
39309;BME280;26019;47.510;19.122;2023-02-20T18:27:38;100391.53;;;8.59;100.00
39309;BME280;26019;47.510;19.122;2023-02-20T18:37:51;100383.94;;;9.10;97.19
39309;BME280;26019;47.510;19.122;2023-02-20T18:48:01;100370.19;;;9.19;95.62
39309;BME280;26019;47.510;19.122;2023-02-20T18:58:05;100355.53;;;8.87;99.31
39309;BME280;26019;47.510;19.122;2023-02-20T19:08:20;100334.00;;;8.66;100.00
39309;BME280;26019;47.510;19.122;2023-02-20T19:18:23;100340.03;;;8.60;100.00
39309;BME280;26019;47.510;19.122;2023-02-20T19:28:32;100337.44;;;8.62;100.00
39309;BME280;26019;47.510;19.122;2023-02-20T19:38:37;100298.78;;;8.52;100.00
39309;BME280;26019;47.510;19.122;2023-02-20T19:48:41;100287.63;;;8.50;100.00
39309;BME280;26019;47.510;19.122;2023-02-20T19:58:57;100283.28;;;8.42;100.00
39309;BME280;26019;47.510;19.122;2023-02-20T20:09:01;100278.09;;;8.25;100.00
39309;BME280;26019;47.510;19.122;2023-02-20T20:19:21;100263.50;;;8.24;100.00
39309;BME280;26019;47.510;19.122;2023-02-20T20:29:24;100256.66;;;8.26;100.00
39309;BME280;26019;47.510;19.122;2023-02-20T20:39:33;100266.19;;;8.90;100.00
39309;BME280;26019;47.510;19.122;2023-02-20T20:49:40;100263.59;;;9.17;100.00
39309;BME280;26019;47.510;19.122;2023-02-20T20:59:47;100249.00;;;9.25;100.00
39309;BME280;26019;47.510;19.122;2023-02-20T21:09:51;100242.97;;;9.10;100.00
39309;BME280;26019;47.510;19.122;2023-02-20T21:19:57;100233.53;;;9.02;100.00
39309;BME280;26019;47.510;19.122;2023-02-20T21:30:05;100230.94;;;9.00;100.00
39309;BME280;26019;47.510;19.122;2023-02-20T21:40:10;100243.00;;;9.03;100.00
39309;BME280;26019;47.510;19.122;2023-02-20T21:50:16;100237.84;;;8.86;100.00
39309;BME280;26019;47.510;19.122;2023-02-20T22:00:19;100232.69;;;8.82;100.00
39309;BME280;26019;47.510;19.122;2023-02-20T22:10:23;100200.06;;;8.78;100.00
39309;BME280;26019;47.510;19.122;2023-02-20T22:20:44;100182.03;;;8.61;100.00
39309;BME280;26019;47.510;19.122;2023-02-20T22:31:08;100172.59;;;8.59;100.00
39309;BME280;26019;47.510;19.122;2023-02-20T22:41:28;100151.09;;;8.78;100.00
39309;BME280;26019;47.510;19.122;2023-02-20T22:51:49;100153.69;;;8.61;100.00
39309;BME280;26019;47.510;19.122;2023-02-20T23:02:15;100157.94;;;8.25;100.00
39309;BME280;26019;47.510;19.122;2023-02-20T23:12:35;100162.97;;;7.66;100.00
39309;BME280;26019;47.510;19.122;2023-02-20T23:22:55;100153.38;;;7.26;100.00
39309;BME280;26019;47.510;19.122;2023-02-20T23:33:22;100148.16;;;7.14;100.00
39309;BME280;26019;47.510;19.122;2023-02-20T23:43:43;100137.97;;;7.34;100.00
39309;BME280;26019;47.510;19.122;2023-02-20T23:54:04;100127.75;;;7.51;100.00
